Summerville, Oregon
Current Conditions -  °F | °C
As of 1:55 PM on Friday 31 Oct 2014 (Local Time) from KLGD Reporting Station
Overcast Overcast  
Wind Chill: 66°   Ceiling: 8500
Heat Index: 66°   Visibility: 10mi
Dew Point: 34°   Wind: 7mph
Humidity: 30%   Direction: 250°WSW
Pressure: 29.73"   Gusts: NA
Location:  45.49°N, 118°W
Report Text: KLGD 312055Z AUTO 25006KT 10SM OVC085 19/01 A2973 RMK AO1 57003
Loading
Personal Weather Stations






























Interactive Weather Map
Tropical Storm Tracking
New forecast layout! Learn more

10-Day Weather Forecast

Advertisements
Track Severe Weather on mobile